createdAt,value
2023-01-13T00:00:13.671Z,0.08
2023-01-13T00:01:14.462Z,0.07
2023-01-13T00:02:13.233Z,0.12
2023-01-13T00:03:13.353Z,0.09
2023-01-13T00:04:13.324Z,0.11
2023-01-13T00:05:13.755Z,0.12
2023-01-13T00:06:14.867Z,0.15
2023-01-13T00:07:13.379Z,0.13
2023-01-13T00:08:13.865Z,0.12
2023-01-13T00:09:13.356Z,0.14
2023-01-13T00:10:13.377Z,0.13
2023-01-13T00:11:13.432Z,0.14
2023-01-13T00:12:13.378Z,0.15
2023-01-13T00:13:14.212Z,0.13
2023-01-13T00:14:13.480Z,0.12
2023-01-13T00:15:13.453Z,0.13
2023-01-13T00:16:15.311Z,0.12
2023-01-13T00:17:14.797Z,0.13
2023-01-13T00:18:13.487Z,0.12
2023-01-13T00:19:13.451Z,0.12
2023-01-13T00:20:13.524Z,0.15
2023-01-13T00:21:14.825Z,0.16
2023-01-13T00:22:13.609Z,0.19
2023-01-13T00:23:13.537Z,0.21
2023-01-13T00:24:13.590Z,0.19
2023-01-13T00:25:13.618Z,0.18
2023-01-13T00:26:15.312Z,0.19
2023-01-13T00:27:13.763Z,0.22
2023-01-13T00:28:13.629Z,0.22
2023-01-13T00:29:13.664Z,0.23
2023-01-13T00:30:13.976Z,0.22
2023-01-13T00:31:22.511Z,0.21
2023-01-13T00:32:14.319Z,0.25
2023-01-13T00:33:14.251Z,0.26
2023-01-13T00:34:14.301Z,0.26
2023-01-13T00:35:14.350Z,0.23
2023-01-13T00:36:15.524Z,0.23
2023-01-13T00:37:14.441Z,0.23
2023-01-13T00:38:14.332Z,0.27
2023-01-13T00:39:14.381Z,0.28
2023-01-13T00:40:14.389Z,0.32
2023-01-13T00:41:15.766Z,0.28
2023-01-13T00:42:14.478Z,0.32
2023-01-13T00:43:14.434Z,0.31
2023-01-13T00:44:14.484Z,0.34
2023-01-13T00:45:14.462Z,0.33
2023-01-13T00:46:16.356Z,0.3
2023-01-13T00:47:14.553Z,0.33
2023-01-13T00:48:14.571Z,0.32
2023-01-13T00:49:14.595Z,0.35
2023-01-13T00:50:14.701Z,0.36
2023-01-13T00:51:15.969Z,0.38
2023-01-13T00:52:31.752Z,0.33
2023-01-13T00:53:23.422Z,0.34
2023-01-13T00:54:23.426Z,0.37
2023-01-13T00:55:23.395Z,0.38
2023-01-13T00:56:40.993Z,0.38
2023-01-13T00:57:28.223Z,0.38
2023-01-13T00:58:28.562Z,0.36
2023-01-13T00:59:28.201Z,0.43
2023-01-13T01:00:28.227Z,0.38
2023-01-13T01:01:28.360Z,0.39
2023-01-13T01:02:30.321Z,0.4
2023-01-13T01:03:28.587Z,0.4
2023-01-13T01:04:28.316Z,0.39
2023-01-13T01:05:28.255Z,0.39
2023-01-13T01:06:28.409Z,0.42
2023-01-13T01:07:28.401Z,0.41
2023-01-13T01:08:28.392Z,0.39
2023-01-13T01:09:28.382Z,0.39
2023-01-13T01:10:28.350Z,0.38
2023-01-13T01:11:29.772Z,0.34
2023-01-13T01:12:28.402Z,0.38
2023-01-13T01:13:28.546Z,0.4
2023-01-13T01:14:28.549Z,0.42
2023-01-13T01:15:28.507Z,0.42
2023-01-13T01:16:29.895Z,0.37
2023-01-13T01:17:28.577Z,0.38
2023-01-13T01:18:28.469Z,0.39
2023-01-13T01:19:28.579Z,0.38
2023-01-13T01:20:28.543Z,0.41
2023-01-13T01:21:28.974Z,0.42
2023-01-13T01:22:28.503Z,0.43
2023-01-13T01:23:28.928Z,0.43
2023-01-13T01:24:28.520Z,0.47
2023-01-13T01:25:28.512Z,0.5
2023-01-13T01:26:29.750Z,0.51
2023-01-13T01:27:28.631Z,0.52
2023-01-13T01:28:28.734Z,0.52
2023-01-13T01:29:28.685Z,0.48
2023-01-13T01:30:28.744Z,0.46
2023-01-13T01:31:30.003Z,0.49
2023-01-13T01:32:28.641Z,0.44
2023-01-13T01:33:28.661Z,0.49
2023-01-13T01:34:28.721Z,0.49
2023-01-13T01:35:28.852Z,0.47
2023-01-13T01:36:28.789Z,0.48
2023-01-13T01:37:28.716Z,0.47
2023-01-13T01:38:28.761Z,0.51
2023-01-13T01:39:28.717Z,0.53
2023-01-13T01:40:28.850Z,0.52
2023-01-13T01:41:30.269Z,0.52
2023-01-13T01:42:28.799Z,0.49
2023-01-13T01:45:34.967Z,0.53
2023-01-13T01:46:39.130Z,0.51
2023-01-13T01:47:35.433Z,0.5
2023-01-13T01:49:38.767Z,0.48
2023-01-13T01:50:38.370Z,0.49
2023-01-13T01:51:40.190Z,0.55
2023-01-13T01:52:40.174Z,0.56
2023-01-13T01:53:37.339Z,0.56
2023-01-13T01:55:39.480Z,0.51
2023-01-13T01:56:41.331Z,0.55
2023-01-13T01:58:46.977Z,0.55
2023-01-13T01:59:43.754Z,0.56
2023-01-13T02:00:43.535Z,0.59
2023-01-13T02:01:44.177Z,0.61
2023-01-13T02:02:44.723Z,0.64
2023-01-13T02:03:45.584Z,0.65
2023-01-13T02:04:47.136Z,0.63
2023-01-13T02:05:43.509Z,0.64
2023-01-13T02:06:44.127Z,0.65
2023-01-13T02:07:44.608Z,0.62
2023-01-13T02:08:43.768Z,0.63
2023-01-13T02:09:43.979Z,0.65
2023-01-13T02:10:45.677Z,0.65
2023-01-13T02:11:43.429Z,0.72
2023-01-13T02:12:44.084Z,0.71
2023-01-13T02:13:43.485Z,0.71
2023-01-13T02:14:44.084Z,0.74
2023-01-13T02:28:21.239Z,0.82
2023-01-13T02:29:29.251Z,0.79
2023-01-13T02:30:33.667Z,0.8
2023-01-13T02:31:26.263Z,0.81
2023-01-13T02:32:29.653Z,0.85
2023-01-13T02:33:37.473Z,0.86
2023-01-13T02:34:40.260Z,0.87
2023-01-13T02:35:45.597Z,0.89
2023-01-13T02:36:43.860Z,0.85
2023-01-13T02:37:38.724Z,0.87
2023-01-13T02:38:39.372Z,0.83
2023-01-13T02:39:39.582Z,0.86
2023-01-13T02:40:44.806Z,0.91
2023-01-13T02:41:42.566Z,0.96
2023-01-13T02:43:43.293Z,0.95
2023-01-13T02:44:46.640Z,0.96
2023-01-13T02:45:52.622Z,0.94
2023-01-13T02:46:53.539Z,0.96
2023-01-13T02:47:47.260Z,0.97
2023-01-13T02:48:47.667Z,0.98
2023-01-13T02:49:48.679Z,0.95
2023-01-13T02:50:49.796Z,0.94
2023-01-13T02:51:47.847Z,0.99
2023-01-13T02:52:50.921Z,1.03
2023-01-13T02:53:54.063Z,1.04
2023-01-13T02:54:58.719Z,1.05
2023-01-13T02:55:57.299Z,1.09
2023-01-13T02:56:57.274Z,1.1
2023-01-13T02:57:56.488Z,1.14
2023-01-13T02:58:57.657Z,1.12
2023-01-13T02:59:55.774Z,1.1
2023-01-13T03:00:55.809Z,1.1
2023-01-13T03:01:56.608Z,1.12
2023-01-13T03:02:55.517Z,1.1
2023-01-13T03:03:55.597Z,1.18
2023-01-13T03:04:56.973Z,1.22
2023-01-13T03:18:33.645Z,1.28
2023-01-13T03:19:36.582Z,1.23
2023-01-13T03:20:34.463Z,1.26
2023-01-13T03:21:39.214Z,1.42
2023-01-13T03:22:44.506Z,1.27
2023-01-13T03:28:52.187Z,1.34
2023-01-13T03:30:54.445Z,1.37
2023-01-13T03:34:00.160Z,1.36
2023-01-13T03:36:03.518Z,1.3
2023-01-13T03:37:02.140Z,1.34
2023-01-13T03:38:03.124Z,1.32
2023-01-13T03:40:03.601Z,1.34
2023-01-13T03:41:04.015Z,1.33
2023-01-13T03:43:06.239Z,1.22
2023-01-13T03:46:12.507Z,1.38
2023-01-13T03:49:13.804Z,1.36
2023-01-13T03:50:14.740Z,1.32
2023-01-13T03:51:14.823Z,1.43
2023-01-13T03:53:16.211Z,1.36
2023-01-13T03:54:15.272Z,1.31
2023-01-13T03:55:15.422Z,1.34
2023-01-13T03:56:17.315Z,1.46
2023-01-13T03:57:15.649Z,1.39
2023-01-13T03:58:15.909Z,1.43
2023-01-13T03:59:16.847Z,1.41
2023-01-13T04:00:14.157Z,1.39
2023-01-13T04:02:27.005Z,1.34
2023-01-13T04:03:29.301Z,1.34
2023-01-13T04:04:25.436Z,1.4
2023-01-13T04:05:22.436Z,1.4
2023-01-13T04:06:27.030Z,1.37
2023-01-13T04:08:28.637Z,1.43
2023-01-13T04:09:40.006Z,1.45
2023-01-13T04:10:34.672Z,1.43
2023-01-13T04:11:38.565Z,1.34
2023-01-13T04:12:38.950Z,1.4
2023-01-13T04:13:37.550Z,1.39
2023-01-13T04:14:36.180Z,1.5
2023-01-13T04:15:40.344Z,1.43
2023-01-13T04:16:37.801Z,1.47
2023-01-13T04:17:36.997Z,1.45
2023-01-13T04:18:38.887Z,1.38
2023-01-13T04:19:37.057Z,1.42
2023-01-13T04:20:37.856Z,1.43
2023-01-13T04:21:37.082Z,1.44
2023-01-13T04:22:37.064Z,1.45
2023-01-13T04:23:37.068Z,1.45
2023-01-13T04:24:37.305Z,1.55
2023-01-13T04:25:37.532Z,1.54
2023-01-13T04:26:37.203Z,1.5
2023-01-13T04:27:37.437Z,1.49
2023-01-13T04:28:37.157Z,1.57
2023-01-13T04:29:37.186Z,1.53
2023-01-13T04:30:40.539Z,1.52
2023-01-13T04:31:37.271Z,1.52
2023-01-13T04:32:37.342Z,1.48
2023-01-13T04:33:37.359Z,1.44
2023-01-13T04:34:37.355Z,1.55
2023-01-13T04:35:37.633Z,1.47
2023-01-13T04:36:37.527Z,1.51
2023-01-13T04:37:37.416Z,1.46
2023-01-13T04:38:37.408Z,1.38
2023-01-13T04:39:37.625Z,1.5
2023-01-13T04:40:37.499Z,1.47
2023-01-13T04:41:37.598Z,1.59
2023-01-13T04:42:37.509Z,1.52
2023-01-13T04:43:37.471Z,1.47
2023-01-13T04:44:37.560Z,1.58
2023-01-13T04:45:37.590Z,1.5
2023-01-13T04:46:37.599Z,1.49
2023-01-13T04:47:37.705Z,1.55
2023-01-13T04:48:37.557Z,1.53
2023-01-13T04:49:37.564Z,1.55
2023-01-13T04:50:37.622Z,1.52
2023-01-13T04:51:37.743Z,1.57
2023-01-13T04:52:38.086Z,1.51
2023-01-13T04:53:37.650Z,1.51
2023-01-13T04:54:37.650Z,1.51
2023-01-13T04:55:37.811Z,1.56
2023-01-13T04:56:37.694Z,1.49
2023-01-13T04:57:38.096Z,1.41
2023-01-13T04:58:37.702Z,1.46
2023-01-13T04:59:37.670Z,1.39
2023-01-13T05:00:37.933Z,1.5
2023-01-13T05:01:38.163Z,1.53
2023-01-13T05:02:37.840Z,1.58
2023-01-13T05:03:37.786Z,1.5
2023-01-13T05:04:38.068Z,1.58
2023-01-13T05:05:37.777Z,1.54
2023-01-13T05:06:37.805Z,1.47
2023-01-13T05:07:37.906Z,1.46
2023-01-13T05:08:37.991Z,1.42
2023-01-13T05:09:37.842Z,1.52
2023-01-13T05:10:37.851Z,1.57
2023-01-13T05:11:37.902Z,1.46
2023-01-13T05:12:37.973Z,1.52
2023-01-13T05:13:37.869Z,1.49
2023-01-13T05:14:37.914Z,1.49
2023-01-13T05:15:39.349Z,1.51
2023-01-13T05:16:37.917Z,1.45
2023-01-13T05:17:38.315Z,1.45
2023-01-13T05:18:37.976Z,1.48
2023-01-13T05:19:38.088Z,1.48
2023-01-13T05:20:38.308Z,1.55
2023-01-13T05:21:37.960Z,1.51
2023-01-13T05:22:38.078Z,1.5
2023-01-13T05:23:38.064Z,1.5
2023-01-13T05:24:38.055Z,1.54
2023-01-13T05:25:39.550Z,1.48
2023-01-13T05:26:38.044Z,1.45
2023-01-13T05:27:38.093Z,1.45
2023-01-13T05:28:38.168Z,1.49
2023-01-13T05:29:38.123Z,1.49
2023-01-13T05:30:40.451Z,1.52
2023-01-13T05:31:38.133Z,1.44
2023-01-13T05:32:38.153Z,1.52
2023-01-13T05:33:38.127Z,1.52
2023-01-13T05:34:38.219Z,1.51
2023-01-13T05:35:39.103Z,1.52
2023-01-13T05:36:38.188Z,1.52
2023-01-13T05:37:38.366Z,1.51
2023-01-13T05:38:38.232Z,1.58
2023-01-13T05:39:38.485Z,1.57
2023-01-13T05:40:39.305Z,1.51
2023-01-13T05:41:38.255Z,1.47
2023-01-13T05:42:38.326Z,1.52
2023-01-13T05:43:38.257Z,1.58
2023-01-13T05:44:38.332Z,1.45
2023-01-13T05:45:38.338Z,1.54
2023-01-13T05:46:38.419Z,1.54
2023-01-13T05:47:38.489Z,1.48
2023-01-13T05:48:39.929Z,1.51
2023-01-13T05:49:39.940Z,1.58
2023-01-13T05:50:38.430Z,1.48
2023-01-13T05:51:38.422Z,1.58
2023-01-13T05:52:43.493Z,1.61
2023-01-13T05:53:40.343Z,1.58
2023-01-13T05:54:40.208Z,1.59
2023-01-13T05:55:46.232Z,1.57
2023-01-13T05:56:43.823Z,1.48
2023-01-13T05:57:43.784Z,1.44
2023-01-13T05:58:44.125Z,1.49
2023-01-13T05:59:43.889Z,1.56
2023-01-13T06:00:44.395Z,1.5
2023-01-13T06:01:43.863Z,1.53
2023-01-13T06:02:44.133Z,1.6
2023-01-13T06:03:43.866Z,1.55
2023-01-13T06:04:44.189Z,1.59
2023-01-13T06:05:43.908Z,1.52
2023-01-13T06:06:43.902Z,1.5
2023-01-13T06:07:43.943Z,1.44
2023-01-13T06:08:44.047Z,1.52
2023-01-13T06:09:44.036Z,1.58
2023-01-13T06:10:44.294Z,1.47
2023-01-13T06:11:44.010Z,1.46
2023-01-13T06:12:44.075Z,1.56
2023-01-13T06:13:44.058Z,1.61
2023-01-13T06:14:44.091Z,1.54
2023-01-13T06:15:44.157Z,1.51
2023-01-13T06:16:44.123Z,1.52
2023-01-13T06:17:44.259Z,1.5
2023-01-13T06:18:44.100Z,1.51
2023-01-13T06:19:44.392Z,1.51
2023-01-13T06:20:44.109Z,1.5
2023-01-13T06:21:44.243Z,1.54
2023-01-13T06:22:46.712Z,1.55
2023-01-13T06:23:44.210Z,1.51
2023-01-13T06:24:44.910Z,1.52
2023-01-13T06:25:51.763Z,1.59
2023-01-13T06:26:48.431Z,1.59
2023-01-13T06:27:49.026Z,1.54
2023-01-13T06:28:48.441Z,1.53
2023-01-13T06:29:48.460Z,1.59
2023-01-13T06:30:50.422Z,1.53
2023-01-13T06:31:48.624Z,1.5
2023-01-13T06:32:51.496Z,1.53
2023-01-13T06:33:50.385Z,1.51
2023-01-13T06:34:53.074Z,1.61
2023-01-13T06:35:51.760Z,1.59
2023-01-13T06:36:51.956Z,1.55
2023-01-13T06:37:51.513Z,1.58
2023-01-13T06:38:51.499Z,1.57
2023-01-13T06:39:49.921Z,1.68
2023-01-13T06:40:50.110Z,1.57
2023-01-13T06:41:51.647Z,1.5
2023-01-13T06:42:51.036Z,1.53
2023-01-13T06:43:49.946Z,1.59
2023-01-13T06:44:49.931Z,1.57
2023-01-13T06:45:54.298Z,1.57
2023-01-13T06:46:51.726Z,1.54
2023-01-13T06:47:50.955Z,1.5
2023-01-13T06:48:50.960Z,1.61
2023-01-13T06:49:50.975Z,1.6
2023-01-13T06:50:51.072Z,1.65
2023-01-13T06:51:51.037Z,1.7
2023-01-13T06:52:51.109Z,1.68
2023-01-13T06:53:51.085Z,1.57
2023-01-13T06:54:51.130Z,1.61
2023-01-13T06:55:51.217Z,1.58
2023-01-13T06:56:51.217Z,1.66
2023-01-13T06:57:53.029Z,1.63
2023-01-13T06:58:51.251Z,1.66
2023-01-13T06:59:51.253Z,1.63
2023-01-13T07:00:51.962Z,1.56
2023-01-13T07:01:51.400Z,1.58
2023-01-13T07:02:51.253Z,1.57
2023-01-13T07:03:51.183Z,1.65
2023-01-13T07:04:51.837Z,1.64
2023-01-13T07:05:55.086Z,1.64
2023-01-13T07:06:51.825Z,1.64
2023-01-13T07:07:51.753Z,1.69
2023-01-13T07:08:51.751Z,1.6
2023-01-13T07:09:51.750Z,1.63
2023-01-13T07:10:51.793Z,1.61
2023-01-13T07:11:51.798Z,1.61
2023-01-13T07:12:51.893Z,1.66
2023-01-13T07:13:51.846Z,1.65
2023-01-13T07:14:51.870Z,1.61
2023-01-13T07:15:59.263Z,1.58
2023-01-13T07:16:56.177Z,1.7
2023-01-13T07:17:56.102Z,1.7
2023-01-13T07:18:56.041Z,1.57
2023-01-13T07:19:55.963Z,1.6
2023-01-13T07:20:57.652Z,1.6
2023-01-13T07:21:56.021Z,1.68
2023-01-13T07:22:56.659Z,1.68
2023-01-13T07:23:56.108Z,1.73
2023-01-13T07:24:56.103Z,1.69
2023-01-13T07:25:56.661Z,1.61
2023-01-13T07:26:56.134Z,1.57
2023-01-13T07:27:57.412Z,1.63
2023-01-13T07:28:57.392Z,1.68
2023-01-13T07:29:56.174Z,1.68
2023-01-13T07:30:56.901Z,1.59
2023-01-13T07:31:56.306Z,1.68
2023-01-13T07:32:56.244Z,1.61
2023-01-13T07:33:56.374Z,1.72
2023-01-13T07:34:56.304Z,1.57
2023-01-13T07:36:00.625Z,1.57
2023-01-13T07:36:57.362Z,1.62
2023-01-13T07:37:57.344Z,1.55
2023-01-13T07:38:57.396Z,1.6
2023-01-13T07:39:57.327Z,1.66
2023-01-13T07:40:57.572Z,1.63
2023-01-13T07:41:57.385Z,1.61
2023-01-13T07:42:57.337Z,1.51
2023-01-13T07:43:57.548Z,1.58
2023-01-13T07:44:57.786Z,1.63
2023-01-13T07:45:58.250Z,1.68
2023-01-13T07:46:58.507Z,1.63
2023-01-13T07:47:57.568Z,1.66
2023-01-13T07:48:57.478Z,1.6
2023-01-13T07:49:57.469Z,1.6
2023-01-13T07:51:00.941Z,1.55
2023-01-13T07:51:57.592Z,1.66
2023-01-13T07:52:58.024Z,1.64
2023-01-13T07:53:58.109Z,1.71
2023-01-13T07:54:57.803Z,1.69
2023-01-13T07:55:58.328Z,1.67
2023-01-13T07:56:57.712Z,1.68
2023-01-13T07:57:57.684Z,1.64
2023-01-13T07:59:00.821Z,1.54
2023-01-13T08:00:00.042Z,1.57
2023-01-13T08:00:57.917Z,1.72
2023-01-13T08:01:57.965Z,1.62
2023-01-13T08:02:59.688Z,1.67
2023-01-13T08:03:57.805Z,1.61
2023-01-13T08:04:58.025Z,1.71
2023-01-13T08:06:00.059Z,1.61
2023-01-13T08:06:57.926Z,1.64
2023-01-13T08:07:57.912Z,1.58
2023-01-13T08:08:58.491Z,1.63
2023-01-13T08:09:57.888Z,1.65
2023-01-13T08:11:01.082Z,1.53
2023-01-13T08:11:58.494Z,1.58
2023-01-13T08:12:58.016Z,1.66
2023-01-13T08:13:58.100Z,1.64
2023-01-13T08:14:57.961Z,1.72
2023-01-13T08:16:04.823Z,1.67
2023-01-13T08:17:01.460Z,1.59
2023-01-13T08:18:01.479Z,1.63
2023-01-13T08:19:01.513Z,1.56
2023-01-13T08:20:01.844Z,1.61
2023-01-13T08:21:02.673Z,1.66
2023-01-13T08:22:01.736Z,1.73
2023-01-13T08:23:01.571Z,1.66
2023-01-13T08:24:01.594Z,1.63
2023-01-13T08:25:01.650Z,1.65
2023-01-13T08:26:02.279Z,1.58
2023-01-13T08:27:01.689Z,1.6
2023-01-13T08:28:01.676Z,1.5
2023-01-13T08:29:03.036Z,1.52
2023-01-13T08:30:01.716Z,1.54
2023-01-13T08:31:02.681Z,1.51
2023-01-13T08:32:01.707Z,1.56
2023-01-13T08:33:01.694Z,1.65
2023-01-13T08:34:01.860Z,1.63
2023-01-13T08:35:01.765Z,1.55
2023-01-13T08:36:05.686Z,1.51
2023-01-13T08:37:02.466Z,1.56
2023-01-13T08:38:02.466Z,1.5
2023-01-13T08:39:02.568Z,1.43
2023-01-13T08:40:02.439Z,1.48
2023-01-13T08:41:08.315Z,1.48
2023-01-13T08:42:05.033Z,1.46
2023-01-13T08:43:05.028Z,1.52
2023-01-13T08:44:05.213Z,1.5
2023-01-13T08:45:06.296Z,1.48
2023-01-13T08:46:05.289Z,1.38
2023-01-13T08:47:05.367Z,1.46
2023-01-13T08:48:05.846Z,1.52
2023-01-13T08:49:05.627Z,1.43
2023-01-13T08:50:06.018Z,1.43
2023-01-13T08:51:06.345Z,1.51
2023-01-13T08:52:05.118Z,1.42
2023-01-13T08:53:05.179Z,1.42
2023-01-13T08:54:05.215Z,1.4
2023-01-13T08:55:05.711Z,1.4
2023-01-13T08:56:08.264Z,1.45
2023-01-13T08:57:05.804Z,1.45
2023-01-13T08:58:15.344Z,1.36
2023-01-13T08:59:15.528Z,1.28
2023-01-13T09:00:12.541Z,1.32
2023-01-13T09:01:21.242Z,1.39
2023-01-13T09:02:17.453Z,1.4
2023-01-13T09:03:19.272Z,1.37
2023-01-13T09:04:17.794Z,1.37
2023-01-13T09:05:17.752Z,1.36
2023-01-13T09:06:16.018Z,1.48
2023-01-13T09:07:16.453Z,1.36
2023-01-13T09:08:16.052Z,1.36
2023-01-13T09:09:16.602Z,1.36
2023-01-13T09:10:17.343Z,1.3
2023-01-13T09:11:20.192Z,1.33
2023-01-13T09:12:17.115Z,1.3
2023-01-13T09:13:17.073Z,1.33
2023-01-13T09:14:21.775Z,1.44
2023-01-13T09:15:18.705Z,1.41
2023-01-13T09:16:18.523Z,1.42
2023-01-13T09:17:18.467Z,1.42
2023-01-13T09:18:18.495Z,1.45
2023-01-13T09:19:18.605Z,1.38
2023-01-13T09:20:18.723Z,1.41
2023-01-13T09:21:18.776Z,1.44
2023-01-13T09:22:19.150Z,1.43
2023-01-13T09:23:18.530Z,1.38
2023-01-13T09:24:19.022Z,1.38
2023-01-13T09:25:18.589Z,1.36
2023-01-13T09:26:20.712Z,1.33
2023-01-13T09:27:18.602Z,1.36
2023-01-13T09:28:18.657Z,1.41
2023-01-13T09:29:18.892Z,1.36
2023-01-13T09:30:18.700Z,1.41
2023-01-13T09:31:18.870Z,1.36
2023-01-13T09:32:19.051Z,1.41
2023-01-13T09:33:18.724Z,1.43
2023-01-13T09:34:19.848Z,1.49
2023-01-13T09:35:18.846Z,1.45
2023-01-13T09:36:19.060Z,1.44
2023-01-13T09:37:18.827Z,1.38
2023-01-13T09:38:19.048Z,1.41
2023-01-13T09:39:19.059Z,1.49
2023-01-13T09:40:20.301Z,1.4
2023-01-13T09:41:22.292Z,1.39
2023-01-13T09:43:28.433Z,1.36
2023-01-13T09:46:34.981Z,1.4
2023-01-13T09:47:38.361Z,1.37
2023-01-13T09:48:37.701Z,1.35
2023-01-13T09:49:39.697Z,1.36
2023-01-13T09:51:46.914Z,1.4
2023-01-13T09:52:43.810Z,1.42
2023-01-13T09:53:47.838Z,1.38
2023-01-13T09:55:49.215Z,1.41
2023-01-13T09:56:49.318Z,1.42
2023-01-13T09:57:49.274Z,1.45
2023-01-13T09:58:49.347Z,1.47
2023-01-13T09:59:49.429Z,1.43
2023-01-13T10:03:57.559Z,1.36
2023-01-13T10:05:03.563Z,1.39
2023-01-13T10:06:13.266Z,1.34
2023-01-13T10:07:09.331Z,1.44
2023-01-13T10:08:13.451Z,1.42
2023-01-13T10:09:14.399Z,1.39
2023-01-13T10:10:15.018Z,1.36
2023-01-13T10:11:18.974Z,1.34
2023-01-13T10:12:20.095Z,1.36
2023-01-13T10:13:24.581Z,1.31
2023-01-13T10:14:27.244Z,1.31
2023-01-13T10:15:25.679Z,1.45
2023-01-13T10:16:28.638Z,1.48
2023-01-13T10:18:34.669Z,1.37
2023-01-13T10:19:37.028Z,1.33
2023-01-13T10:23:53.878Z,1.3
2023-01-13T10:27:04.147Z,1.38
2023-01-13T10:28:01.362Z,1.35
2023-01-13T10:28:58.023Z,1.3
2023-01-13T10:29:58.040Z,1.3
2023-01-13T10:30:58.230Z,1.33
2023-01-13T10:31:59.172Z,1.29
2023-01-13T10:33:02.007Z,1.35
2023-01-13T10:33:59.992Z,1.28
2023-01-13T10:34:58.687Z,1.27
2023-01-13T10:37:01.121Z,1.28
2023-01-13T10:37:59.858Z,1.25
2023-01-13T10:40:01.981Z,1.3
2023-01-13T10:41:02.694Z,1.23
2023-01-13T10:42:04.925Z,1.2
2023-01-13T10:43:04.540Z,1.19
2023-01-13T10:44:08.542Z,1.22
2023-01-13T10:45:18.168Z,1.19
2023-01-13T10:46:13.894Z,1.28
2023-01-13T10:47:18.110Z,1.23
2023-01-13T10:48:14.799Z,1.3
2023-01-13T10:50:19.452Z,1.33
2023-01-13T10:53:24.711Z,1.27
2023-01-13T10:54:25.538Z,1.29
2023-01-13T10:56:29.373Z,1.28
2023-01-13T10:57:28.255Z,1.23
2023-01-13T10:58:27.633Z,1.23
2023-01-13T10:59:27.634Z,1.23
2023-01-13T11:00:30.744Z,1.23
2023-01-13T11:01:27.756Z,1.22
2023-01-13T11:02:29.861Z,1.24
2023-01-13T11:04:34.440Z,1.21
2023-01-13T11:05:31.619Z,1.27
2023-01-13T11:06:31.675Z,1.24
2023-01-13T11:07:35.848Z,1.23
2023-01-13T11:09:32.840Z,1.24
2023-01-13T11:10:32.847Z,1.2
2023-01-13T11:12:43.986Z,1.25
2023-01-13T11:13:43.081Z,1.26
2023-01-13T11:14:42.558Z,1.24
2023-01-13T11:15:50.078Z,1.27
2023-01-13T11:16:53.018Z,1.25
2023-01-13T11:17:51.440Z,1.22
2023-01-13T11:18:54.871Z,1.15
2023-01-13T11:19:53.725Z,1.22
2023-01-13T11:20:51.496Z,1.23
2023-01-13T11:22:54.305Z,1.29
2023-01-13T11:25:00.092Z,1.25
2023-01-13T11:26:02.281Z,1.26
2023-01-13T11:28:05.296Z,1.2
2023-01-13T11:29:08.460Z,1.19
2023-01-13T11:31:20.836Z,1.18
2023-01-13T11:32:17.368Z,1.24
2023-01-13T11:35:20.341Z,1.21
2023-01-13T11:36:20.628Z,1.26
2023-01-13T11:37:25.289Z,1.24
2023-01-13T11:39:27.564Z,1.23
2023-01-13T11:42:32.126Z,1.22
2023-01-13T11:43:36.223Z,1.22
2023-01-13T11:44:39.721Z,1.23
2023-01-13T11:45:38.368Z,1.2
2023-01-13T11:46:36.882Z,1.19
2023-01-13T11:47:36.783Z,1.2
2023-01-13T11:48:40.161Z,1.19
2023-01-13T11:49:37.163Z,1.16
2023-01-13T11:50:41.069Z,1.18
2023-01-13T11:51:45.473Z,1.23
2023-01-13T11:53:53.607Z,1.25
2023-01-13T11:55:55.820Z,1.22
2023-01-13T12:06:29.446Z,1.13
2023-01-13T12:15:51.928Z,1.11
2023-01-13T12:16:49.202Z,1.1
2023-01-13T12:17:59.884Z,1.15
2023-01-13T12:19:51.621Z,1.13
2023-01-13T12:23:01.336Z,1.02
2023-01-13T12:26:10.987Z,1
2023-01-13T12:27:05.770Z,1.01
2023-01-13T12:28:06.657Z,1.01
2023-01-13T12:29:13.746Z,1.01
2023-01-13T12:30:17.461Z,0.98
2023-01-13T12:31:09.668Z,0.96
2023-01-13T12:32:13.799Z,0.95
2023-01-13T12:33:20.060Z,0.92
2023-01-13T12:36:24.861Z,0.83
2023-01-13T12:37:29.298Z,0.74
2023-01-13T12:38:35.213Z,0.75
2023-01-13T12:42:40.257Z,0.63
2023-01-13T12:43:32.179Z,0.63
2023-01-13T12:44:31.922Z,0.59
2023-01-13T12:45:33.156Z,0.64
2023-01-13T12:46:43.356Z,0.59
2023-01-13T12:47:36.503Z,0.61
2023-01-13T12:49:38.155Z,0.63
2023-01-13T12:50:39.516Z,0.63
2023-01-13T12:53:40.573Z,0.63
2023-01-13T12:55:41.705Z,0.56
2023-01-13T12:56:44.936Z,0.61
2023-01-13T12:58:46.648Z,0.59
2023-01-13T13:15:24.201Z,0.63
2023-01-13T13:18:31.727Z,0.6
2023-01-13T13:19:40.959Z,0.62
2023-01-13T13:22:43.001Z,0.63
2023-01-13T13:26:50.625Z,0.59
2023-01-13T13:30:03.880Z,0.6
2023-01-13T13:32:06.968Z,0.62
2023-01-13T13:33:14.122Z,0.61
2023-01-13T13:34:15.321Z,0.62
2023-01-13T13:35:19.752Z,0.61
2023-01-13T13:38:24.461Z,0.62
2023-01-13T13:40:17.907Z,0.57
2023-01-13T13:41:22.328Z,0.58
2023-01-13T13:43:19.913Z,0.61
2023-01-13T13:44:26.822Z,0.64
2023-01-13T13:45:24.191Z,0.69
2023-01-13T13:47:25.403Z,0.69
2023-01-13T13:48:26.610Z,0.69
2023-01-13T13:50:28.250Z,0.63
2023-01-13T13:51:31.717Z,0.65
2023-01-13T13:52:39.923Z,0.7
2023-01-13T13:53:34.089Z,0.67
2023-01-13T13:54:32.394Z,0.64
2023-01-13T13:55:32.519Z,0.69
2023-01-13T13:56:35.272Z,0.66
2023-01-13T13:57:39.801Z,0.67
2023-01-13T13:58:36.869Z,0.67
2023-01-13T13:59:38.255Z,0.68
2023-01-13T14:00:37.442Z,0.68
2023-01-13T14:01:38.533Z,0.64
2023-01-13T14:02:37.232Z,0.67
2023-01-13T14:03:39.898Z,0.65
2023-01-13T14:04:37.792Z,0.64
2023-01-13T14:05:37.193Z,0.68
2023-01-13T14:06:37.074Z,0.65
2023-01-13T14:07:43.283Z,0.65
2023-01-13T14:08:40.122Z,0.67
2023-01-13T14:09:41.615Z,0.64
2023-01-13T14:10:41.350Z,0.65
2023-01-13T14:11:40.930Z,0.63
2023-01-13T14:12:39.954Z,0.62
2023-01-13T14:13:39.971Z,0.63
2023-01-13T14:14:42.673Z,0.64
2023-01-13T14:15:40.311Z,0.64
2023-01-13T14:16:40.440Z,0.65
2023-01-13T14:17:40.077Z,0.67
2023-01-13T14:18:45.246Z,0.63
2023-01-13T14:19:41.944Z,0.64
2023-01-13T14:20:42.450Z,0.64
2023-01-13T14:21:42.092Z,0.68
2023-01-13T14:22:46.218Z,0.64
2023-01-13T14:23:50.119Z,0.64
2023-01-13T14:24:47.456Z,0.67
2023-01-13T14:25:48.084Z,0.7
2023-01-13T14:26:46.889Z,0.66
2023-01-13T14:27:47.070Z,0.66
2023-01-13T14:28:46.884Z,0.67
2023-01-13T14:29:46.960Z,0.71
2023-01-13T14:30:47.143Z,0.72
2023-01-13T14:31:47.520Z,0.74
2023-01-13T14:32:47.315Z,0.74
2023-01-13T14:33:48.541Z,0.72
2023-01-13T14:34:47.336Z,0.7
2023-01-13T14:36:51.774Z,0.75
2023-01-13T14:38:00.701Z,0.71
2023-01-13T14:39:53.463Z,0.73
2023-01-13T14:40:53.802Z,0.69
2023-01-13T14:41:53.526Z,0.69
2023-01-13T14:44:01.028Z,0.74
2023-01-13T14:44:57.285Z,0.78
2023-01-13T14:45:59.344Z,0.76
2023-01-13T14:48:00.906Z,0.8
2023-01-13T14:49:01.955Z,0.76
2023-01-13T14:51:01.192Z,0.75
2023-01-13T14:53:04.022Z,0.76
2023-01-13T14:54:04.210Z,0.77
2023-01-13T14:58:26.318Z,0.74
2023-01-13T15:00:23.220Z,0.82
2023-01-13T15:04:33.875Z,0.79
2023-01-13T15:05:32.600Z,0.77
2023-01-13T15:06:30.527Z,0.84
2023-01-13T15:07:31.976Z,0.83
2023-01-13T15:08:34.790Z,0.84
2023-01-13T15:09:39.744Z,0.82
2023-01-13T15:10:47.545Z,0.79
2023-01-13T15:11:39.204Z,0.83
2023-01-13T15:12:40.250Z,0.78
2023-01-13T15:13:48.825Z,0.77
2023-01-13T15:14:39.880Z,0.82
2023-01-13T15:15:39.811Z,0.83
2023-01-13T15:16:39.713Z,0.84
2023-01-13T15:17:39.673Z,0.78
2023-01-13T15:18:39.850Z,0.81
2023-01-13T15:19:40.038Z,0.89
2023-01-13T15:20:40.238Z,0.85
2023-01-13T15:21:39.725Z,0.82
2023-01-13T15:22:39.772Z,0.87
2023-01-13T15:23:39.763Z,0.83
2023-01-13T15:24:39.786Z,0.82
2023-01-13T15:25:41.197Z,0.88
2023-01-13T15:26:39.850Z,0.89
2023-01-13T15:27:40.282Z,0.87
2023-01-13T15:28:39.885Z,0.83
2023-01-13T15:29:39.897Z,0.91
2023-01-13T15:30:39.913Z,0.86
2023-01-13T15:31:39.877Z,0.84
2023-01-13T15:32:39.894Z,0.86
2023-01-13T15:33:40.110Z,0.85
2023-01-13T15:34:39.934Z,0.84
2023-01-13T15:35:42.145Z,0.93
2023-01-13T15:36:40.114Z,0.95
2023-01-13T15:37:40.679Z,0.95
2023-01-13T15:38:39.962Z,0.91
2023-01-13T15:39:40.161Z,0.91
2023-01-13T15:40:40.600Z,0.86
2023-01-13T15:41:40.014Z,0.91
2023-01-13T15:42:39.996Z,0.89
2023-01-13T15:43:40.129Z,0.88
2023-01-13T15:44:40.024Z,0.91
2023-01-13T15:45:41.187Z,0.91
2023-01-13T15:46:40.122Z,0.86
2023-01-13T15:47:40.217Z,0.9
2023-01-13T15:48:40.643Z,0.98
2023-01-13T15:49:41.978Z,0.99
2023-01-13T15:50:40.072Z,0.99
2023-01-13T15:51:40.176Z,0.96
2023-01-13T15:52:40.159Z,0.92
2023-01-13T15:53:40.353Z,0.93
2023-01-13T15:54:40.625Z,0.97
2023-01-13T15:55:42.309Z,1.01
2023-01-13T15:56:40.929Z,1.05
2023-01-13T15:57:44.957Z,0.99
2023-01-13T15:58:41.701Z,1.01
2023-01-13T15:59:41.714Z,0.97
2023-01-13T16:00:41.922Z,1.03
2023-01-13T16:01:41.816Z,0.99
2023-01-13T16:02:41.774Z,0.98
2023-01-13T16:03:41.746Z,1.02
2023-01-13T16:04:41.678Z,1.04
2023-01-13T16:05:42.181Z,1.12
2023-01-13T16:06:42.253Z,1.08
2023-01-13T16:07:41.772Z,1.12
2023-01-13T16:08:42.003Z,1.09
2023-01-13T16:09:41.969Z,1.04
2023-01-13T16:10:42.318Z,1.04